createdAt,value
2022-07-28T00:00:19.483Z,28.00
2022-07-28T00:03:42.807Z,28.33
2022-07-28T00:06:48.874Z,25.00
2022-07-28T00:10:00.182Z,29.33
2022-07-28T00:13:08.130Z,29.00
2022-07-28T00:16:13.633Z,27.67
2022-07-28T00:19:23.158Z,28.00
2022-07-28T00:22:29.860Z,26.67
2022-07-28T00:25:35.043Z,27.00
2022-07-28T00:28:41.286Z,26.67
2022-07-28T00:31:46.163Z,26.33
2022-07-28T00:34:53.653Z,30.00
2022-07-28T00:37:58.724Z,28.00
2022-07-28T00:41:14.856Z,29.67
2022-07-28T00:44:21.534Z,30.75
2022-07-28T00:47:25.814Z,26.50
2022-07-28T00:51:51.278Z,27.67
2022-07-28T00:54:56.633Z,26.00
2022-07-28T00:58:19.609Z,29.00
2022-07-28T01:01:27.881Z,28.00
2022-07-28T01:04:34.641Z,30.50
2022-07-28T01:07:50.217Z,28.50
2022-07-28T01:11:15.040Z,27.75
2022-07-28T01:14:50.084Z,28.50
2022-07-28T01:18:05.503Z,27.00
2022-07-28T01:21:16.173Z,25.00
2022-07-28T01:24:37.802Z,24.33
2022-07-28T01:32:05.397Z,27.67
2022-07-28T01:35:15.042Z,24.67
2022-07-28T01:38:22.894Z,28.25
2022-07-28T01:41:30.365Z,28.75
2022-07-28T01:44:45.807Z,28.75
2022-07-28T01:47:53.388Z,25.67
2022-07-28T01:51:10.728Z,27.33
2022-07-28T01:54:44.153Z,27.33
2022-07-28T01:57:57.228Z,27.00
2022-07-28T02:01:05.456Z,20.67
2022-07-28T02:04:13.595Z,29.50
2022-07-28T02:07:22.391Z,30.00
2022-07-28T02:15:15.286Z,28.33
2022-07-28T02:18:19.770Z,24.00
2022-07-28T02:22:00.609Z,23.00
2022-07-28T02:25:06.986Z,26.33
2022-07-28T02:28:16.026Z,25.67
2022-07-28T02:31:28.494Z,23.67
2022-07-28T02:34:35.270Z,26.00
2022-07-28T02:37:47.688Z,26.67
2022-07-28T02:41:37.747Z,24.00
2022-07-28T02:45:14.621Z,25.33
2022-07-28T02:48:24.054Z,24.00
2022-07-28T02:51:35.242Z,24.67
2022-07-28T02:54:42.380Z,25.00
2022-07-28T02:57:53.157Z,24.00
2022-07-28T03:01:10.998Z,28.00
2022-07-28T03:04:41.240Z,26.67
2022-07-28T03:07:52.991Z,23.67
2022-07-28T03:11:10.251Z,26.67
2022-07-28T03:14:15.420Z,27.67
2022-07-28T03:17:22.197Z,25.33
2022-07-28T03:20:27.088Z,25.33
2022-07-28T03:23:37.190Z,25.33
2022-07-28T03:26:57.494Z,26.00
2022-07-28T03:30:07.091Z,21.67
2022-07-28T03:33:13.997Z,28.50
2022-07-28T03:36:28.580Z,23.67
2022-07-28T03:39:39.461Z,25.00
2022-07-28T03:42:55.787Z,26.67
2022-07-28T03:46:13.502Z,24.00
2022-07-28T03:49:20.329Z,26.67
2022-07-28T03:52:51.549Z,27.33
2022-07-28T03:55:57.841Z,26.00
2022-07-28T03:59:05.813Z,20.00
2022-07-28T04:02:11.539Z,25.67
2022-07-28T04:05:21.375Z,23.00
2022-07-28T04:08:28.593Z,24.67
2022-07-28T04:11:34.455Z,25.67
2022-07-28T04:14:40.232Z,25.33
2022-07-28T04:17:45.166Z,26.33
2022-07-28T04:20:49.574Z,26.33
2022-07-28T04:23:58.444Z,26.67
2022-07-28T04:27:06.026Z,26.00
2022-07-28T04:30:15.455Z,29.67
2022-07-28T04:33:20.333Z,28.33
2022-07-28T04:36:24.897Z,30.00
2022-07-28T04:39:29.677Z,27.33
2022-07-28T04:42:34.433Z,27.00
2022-07-28T04:45:52.944Z,29.00
2022-07-28T04:48:58.357Z,26.67
2022-07-28T04:52:03.772Z,26.67
2022-07-28T04:55:09.058Z,24.00
2022-07-28T04:58:14.502Z,16.67
2022-07-28T05:01:24.428Z,15.33
2022-07-28T05:04:29.705Z,17.00
2022-07-28T05:07:34.872Z,19.00
2022-07-28T05:10:39.476Z,13.33
2022-07-28T05:13:43.721Z,16.33
2022-07-28T05:16:50.469Z,12.33
2022-07-28T05:19:55.379Z,16.00
2022-07-28T05:23:00.487Z,13.67
2022-07-28T05:26:14.873Z,12.00
2022-07-28T05:29:20.327Z,12.67
2022-07-28T05:32:28.897Z,11.67
2022-07-28T05:35:34.023Z,12.00
2022-07-28T05:38:38.348Z,13.00
2022-07-28T05:41:43.093Z,8.67
2022-07-28T05:44:47.859Z,10.00
2022-07-28T05:47:55.646Z,10.00
2022-07-28T05:51:00.356Z,11.33
2022-07-28T05:54:05.131Z,6.33
2022-07-28T05:57:09.494Z,5.67
2022-07-28T06:00:24.874Z,5.00
2022-07-28T06:03:32.449Z,5.33
2022-07-28T06:06:37.381Z,4.67
2022-07-28T06:09:45.086Z,6.00
2022-07-28T06:12:51.689Z,6.33
2022-07-28T06:15:59.171Z,4.33
2022-07-28T06:19:06.315Z,5.67
2022-07-28T06:22:12.507Z,7.00
2022-07-28T06:25:18.062Z,7.00
2022-07-28T06:28:23.995Z,6.67
2022-07-28T06:31:28.936Z,5.00
2022-07-28T06:34:34.970Z,5.33
2022-07-28T06:37:39.958Z,5.67
2022-07-28T06:40:44.683Z,5.00
2022-07-28T06:43:49.542Z,6.00
2022-07-28T06:46:54.784Z,5.67
2022-07-28T06:50:01.466Z,5.00
2022-07-28T06:53:06.445Z,5.33
2022-07-28T06:56:13.675Z,6.67
2022-07-28T06:59:21.128Z,5.33
2022-07-28T07:02:28.234Z,6.67
2022-07-28T07:05:34.182Z,7.00
2022-07-28T07:08:39.538Z,6.00
2022-07-28T07:11:44.121Z,6.67
2022-07-28T07:14:48.397Z,6.00
2022-07-28T07:17:52.542Z,6.00
2022-07-28T07:20:59.945Z,6.00
2022-07-28T07:24:04.109Z,7.00
2022-07-28T07:27:08.434Z,7.00
2022-07-28T07:30:13.862Z,5.67
2022-07-28T07:33:18.563Z,6.33
2022-07-28T07:36:25.529Z,5.67
2022-07-28T07:39:31.088Z,6.33
2022-07-28T07:42:36.493Z,6.33
2022-07-28T07:45:42.656Z,5.00
2022-07-28T07:48:47.150Z,6.33
2022-07-28T07:51:53.072Z,4.67
2022-07-28T07:54:56.886Z,4.00
2022-07-28T07:58:01.312Z,6.00
2022-07-28T08:01:05.229Z,4.67
2022-07-28T08:04:09.505Z,6.00
2022-07-28T08:07:15.354Z,6.67
2022-07-28T08:10:19.747Z,6.00
2022-07-28T08:13:24.055Z,4.67
2022-07-28T08:16:28.930Z,7.00
2022-07-28T08:19:32.967Z,7.00
2022-07-28T08:22:48.755Z,6.00
2022-07-28T08:25:52.697Z,7.00
2022-07-28T08:29:00.850Z,6.67
2022-07-28T08:32:05.156Z,6.00
2022-07-28T08:35:32.476Z,6.00
2022-07-28T08:38:35.955Z,5.33
2022-07-28T08:41:47.126Z,6.67
2022-07-28T08:44:56.545Z,6.67
2022-07-28T08:48:10.199Z,9.00
2022-07-28T08:51:15.402Z,6.67
2022-07-28T08:54:24.085Z,6.33
2022-07-28T08:57:31.891Z,4.00
2022-07-28T09:00:36.513Z,5.00
2022-07-28T09:03:41.410Z,5.00
2022-07-28T09:06:46.062Z,7.00
2022-07-28T09:09:52.096Z,7.00
2022-07-28T09:13:01.598Z,5.67
2022-07-28T09:16:05.852Z,5.67
2022-07-28T09:19:12.287Z,7.00
2022-07-28T09:22:16.301Z,6.00
2022-07-28T09:25:22.393Z,6.00
2022-07-28T09:28:26.590Z,5.00
2022-07-28T09:31:31.594Z,6.00
2022-07-28T09:34:42.287Z,5.33
2022-07-28T09:37:46.990Z,6.00
2022-07-28T09:41:04.697Z,5.33
2022-07-28T09:44:19.827Z,4.33
2022-07-28T09:47:25.488Z,4.00
2022-07-28T09:50:31.165Z,4.33
2022-07-28T09:53:35.376Z,4.67
2022-07-28T09:56:44.725Z,4.00
2022-07-28T09:59:50.773Z,5.00
2022-07-28T10:02:58.005Z,4.00
2022-07-28T10:06:05.365Z,3.33
2022-07-28T10:09:14.726Z,4.00
2022-07-28T10:12:22.630Z,5.00
2022-07-28T10:15:50.713Z,6.67
2022-07-28T10:18:55.291Z,5.33
2022-07-28T10:22:02.673Z,4.67
2022-07-28T10:25:12.861Z,5.33
2022-07-28T10:28:23.074Z,3.67
2022-07-28T10:31:34.231Z,5.00
2022-07-28T10:34:45.610Z,6.00
2022-07-28T10:37:55.713Z,6.00
2022-07-28T10:41:02.906Z,5.33
2022-07-28T10:44:10.023Z,5.00
2022-07-28T10:47:18.171Z,4.00
2022-07-28T10:50:24.747Z,5.33
2022-07-28T10:53:39.602Z,6.33
2022-07-28T10:56:50.677Z,5.00
2022-07-28T11:03:44.771Z,6.00
2022-07-28T11:06:49.388Z,3.00
2022-07-28T11:09:53.558Z,6.00
2022-07-28T11:12:58.993Z,5.33
2022-07-28T11:16:22.135Z,4.67
2022-07-28T11:19:42.435Z,4.67
2022-07-28T11:22:53.928Z,4.67
2022-07-28T11:26:34.567Z,5.67
2022-07-28T11:29:47.811Z,5.33
2022-07-28T11:32:58.716Z,6.00
2022-07-28T11:36:05.107Z,5.67
2022-07-28T11:39:25.667Z,7.00
2022-07-28T11:42:33.799Z,6.00
2022-07-28T11:45:42.192Z,4.67
2022-07-28T11:49:27.952Z,6.00
2022-07-28T11:52:34.844Z,5.00
2022-07-28T11:55:55.432Z,4.33
2022-07-28T11:59:11.760Z,5.00
2022-07-28T12:02:20.627Z,7.00
2022-07-28T12:05:25.795Z,5.67
2022-07-28T12:08:53.921Z,6.33
2022-07-28T12:11:59.465Z,7.00
2022-07-28T12:15:07.130Z,4.00
2022-07-28T12:18:14.712Z,6.00
2022-07-28T12:21:18.815Z,2.00
2022-07-28T12:24:31.489Z,6.67
2022-07-28T12:27:37.649Z,5.00
2022-07-28T12:30:45.433Z,4.00
2022-07-28T12:33:53.749Z,5.00
2022-07-28T12:36:59.202Z,5.00
2022-07-28T12:40:04.781Z,5.00
2022-07-28T12:43:08.805Z,5.00
2022-07-28T12:46:12.538Z,6.00
2022-07-28T12:49:23.796Z,6.67
2022-07-28T12:52:27.617Z,6.00
2022-07-28T12:55:34.023Z,4.00
2022-07-28T12:58:38.355Z,6.00
2022-07-28T13:01:47.188Z,6.00
2022-07-28T13:04:52.664Z,7.00
2022-07-28T13:08:10.026Z,6.00
2022-07-28T13:11:47.382Z,5.00
2022-07-28T13:14:53.830Z,8.00
2022-07-28T13:17:59.375Z,6.67
2022-07-28T13:21:03.847Z,5.33
2022-07-28T13:24:08.173Z,5.00
2022-07-28T13:27:15.126Z,7.00
2022-07-28T13:30:21.107Z,5.67
2022-07-28T13:33:28.724Z,7.00
2022-07-28T13:36:33.054Z,6.00
2022-07-28T13:39:37.309Z,5.67
2022-07-28T13:42:53.323Z,6.67
2022-07-28T13:46:01.478Z,5.67
2022-07-28T13:49:06.271Z,7.00
2022-07-28T13:52:12.832Z,7.00
2022-07-28T13:55:20.928Z,7.33
2022-07-28T13:58:29.637Z,7.33
2022-07-28T14:01:34.964Z,8.00
2022-07-28T14:04:40.208Z,7.67
2022-07-28T14:07:50.817Z,7.00
2022-07-28T14:10:59.285Z,7.00
2022-07-28T14:14:04.697Z,7.00
2022-07-28T14:17:32.598Z,7.67
2022-07-28T14:20:33.986Z,6.67
2022-07-28T14:23:38.402Z,8.00
2022-07-28T14:26:42.212Z,6.33
2022-07-28T14:29:49.192Z,7.00
2022-07-28T14:32:54.409Z,6.00
2022-07-28T14:36:02.098Z,7.00
2022-07-28T14:39:12.304Z,7.67
2022-07-28T14:42:16.670Z,8.00
2022-07-28T14:45:24.843Z,3.67
2022-07-28T14:48:29.686Z,7.00
2022-07-28T14:51:33.776Z,7.00
2022-07-28T14:54:39.299Z,6.33
2022-07-28T14:57:51.780Z,7.00
2022-07-28T15:00:59.444Z,6.00
2022-07-28T15:04:03.520Z,6.00
2022-07-28T15:07:08.035Z,7.00
2022-07-28T15:10:17.906Z,3.00
2022-07-28T15:13:23.576Z,6.33
2022-07-28T15:16:30.285Z,8.00
2022-07-28T15:19:35.319Z,7.67
2022-07-28T15:22:40.544Z,7.00
2022-07-28T15:25:48.357Z,6.33
2022-07-28T15:28:53.469Z,6.00
2022-07-28T15:32:10.816Z,5.00
2022-07-28T15:35:18.476Z,7.00
2022-07-28T15:38:23.004Z,8.33
2022-07-28T15:41:27.136Z,7.33
2022-07-28T15:44:31.535Z,7.00
2022-07-28T15:47:37.459Z,9.00
2022-07-28T15:50:45.704Z,6.33
2022-07-28T15:53:56.352Z,8.00
2022-07-28T15:57:01.759Z,7.00
2022-07-28T16:00:08.553Z,7.33
2022-07-28T16:03:15.225Z,8.00
2022-07-28T16:06:19.552Z,7.00
2022-07-28T16:09:24.565Z,7.00
2022-07-28T16:12:48.821Z,8.00
2022-07-28T16:15:53.080Z,7.33
2022-07-28T16:18:59.270Z,7.00
2022-07-28T16:22:04.702Z,6.00
2022-07-28T16:25:14.703Z,8.00
2022-07-28T16:28:21.819Z,7.00
2022-07-28T16:31:26.037Z,8.00
2022-07-28T16:34:35.597Z,5.00
2022-07-28T16:37:42.988Z,6.00
2022-07-28T16:40:52.190Z,7.00
2022-07-28T16:43:56.566Z,7.00
2022-07-28T16:47:02.076Z,5.00
2022-07-28T16:50:08.448Z,6.33
2022-07-28T16:53:14.052Z,8.00
2022-07-28T16:56:18.972Z,7.00
2022-07-28T16:59:23.399Z,7.00
2022-07-28T17:02:27.588Z,6.33
2022-07-28T17:05:33.322Z,5.33
2022-07-28T17:09:02.218Z,6.67
2022-07-28T17:12:07.619Z,6.67
2022-07-28T17:15:22.129Z,6.00
2022-07-28T17:18:32.024Z,8.00
2022-07-28T17:21:37.699Z,5.00
2022-07-28T17:24:41.755Z,6.33
2022-07-28T17:27:48.151Z,6.67
2022-07-28T17:30:52.711Z,7.00
2022-07-28T17:33:56.623Z,7.67
2022-07-28T17:37:08.397Z,5.67
2022-07-28T17:40:13.346Z,8.00
2022-07-28T17:43:19.643Z,8.33
2022-07-28T17:46:23.634Z,8.00
2022-07-28T17:49:31.147Z,11.00
2022-07-28T17:52:36.687Z,8.67
2022-07-28T17:56:00.858Z,12.00
2022-07-28T17:59:06.505Z,7.00
2022-07-28T18:02:10.539Z,11.00
2022-07-28T18:05:14.437Z,10.00
2022-07-28T18:08:20.461Z,11.00
2022-07-28T18:11:24.773Z,8.67
2022-07-28T18:14:31.642Z,9.33
2022-07-28T18:17:35.744Z,9.33
2022-07-28T18:20:59.924Z,16.67
2022-07-28T18:24:07.126Z,21.67
2022-07-28T18:27:13.617Z,14.67
2022-07-28T18:30:18.387Z,12.00
2022-07-28T18:33:24.047Z,9.00
2022-07-28T18:36:30.129Z,12.00
2022-07-28T18:39:40.039Z,11.33
2022-07-28T18:42:47.412Z,10.67
2022-07-28T18:46:10.772Z,10.67
2022-07-28T18:49:16.559Z,11.67
2022-07-28T18:52:22.858Z,11.00
2022-07-28T18:55:32.306Z,10.00
2022-07-28T19:02:26.482Z,9.33
2022-07-28T19:05:56.917Z,12.67
2022-07-28T19:09:03.273Z,10.33
2022-07-28T19:12:10.437Z,11.67
2022-07-28T19:15:20.122Z,12.00
2022-07-28T19:18:25.426Z,11.00
2022-07-28T19:21:29.557Z,11.33
2022-07-28T19:24:35.164Z,13.00
2022-07-28T19:27:40.747Z,11.33
2022-07-28T19:30:45.097Z,11.33
2022-07-28T19:33:51.911Z,12.00
2022-07-28T19:36:56.386Z,13.00
2022-07-28T19:40:00.460Z,11.33
2022-07-28T19:43:05.492Z,11.33
2022-07-28T19:46:10.383Z,13.33
2022-07-28T19:49:16.955Z,11.33
2022-07-28T19:52:24.185Z,10.33
2022-07-28T19:55:33.627Z,11.00
2022-07-28T19:58:39.644Z,12.00
2022-07-28T20:01:46.858Z,12.33
2022-07-28T20:04:55.413Z,14.33
2022-07-28T20:08:01.651Z,12.33
2022-07-28T20:11:19.444Z,12.00
2022-07-28T20:14:38.458Z,11.00
2022-07-28T20:18:00.204Z,11.67
2022-07-28T20:21:05.183Z,14.00
2022-07-28T20:24:21.567Z,12.33
2022-07-28T20:27:28.889Z,11.67
2022-07-28T20:30:34.999Z,12.00
2022-07-28T20:33:42.650Z,12.00
2022-07-28T20:36:48.179Z,15.33
2022-07-28T20:39:53.475Z,12.67
2022-07-28T20:42:59.645Z,15.00
2022-07-28T20:46:06.170Z,14.67
2022-07-28T20:49:10.549Z,13.33
2022-07-28T20:52:15.767Z,14.00
2022-07-28T20:55:21.321Z,12.33
2022-07-28T20:58:28.015Z,14.00
2022-07-28T21:01:36.685Z,14.33
2022-07-28T21:04:43.586Z,16.00
2022-07-28T21:08:38.874Z,10.33
2022-07-28T21:11:47.854Z,13.33
2022-07-28T21:14:52.823Z,13.00
2022-07-28T21:18:08.548Z,13.00
2022-07-28T21:21:19.528Z,13.67
2022-07-28T21:24:25.046Z,13.33
2022-07-28T21:27:52.828Z,16.00
2022-07-28T21:36:24.223Z,14.33
2022-07-28T21:39:30.661Z,13.33
2022-07-28T21:42:44.227Z,10.67
2022-07-28T21:45:52.423Z,9.33
2022-07-28T21:49:00.804Z,13.67
2022-07-28T21:52:07.955Z,15.00
2022-07-28T21:55:12.668Z,14.33
2022-07-28T21:58:18.092Z,16.33
2022-07-28T22:01:22.934Z,13.67
2022-07-28T22:04:26.873Z,14.67
2022-07-28T22:07:35.527Z,15.67
2022-07-28T22:10:40.209Z,14.00
2022-07-28T22:13:45.868Z,17.00
2022-07-28T22:16:52.996Z,15.67
2022-07-28T22:19:58.383Z,15.67
2022-07-28T22:23:04.376Z,16.00
2022-07-28T22:26:25.359Z,14.33
2022-07-28T22:29:31.047Z,14.00
2022-07-28T22:32:37.412Z,13.33
2022-07-28T22:35:44.275Z,14.00
2022-07-28T22:38:56.083Z,17.33
2022-07-28T22:42:02.160Z,14.00
2022-07-28T22:45:08.114Z,17.33
2022-07-28T22:48:14.698Z,13.00
2022-07-28T22:51:20.193Z,13.67
2022-07-28T22:54:27.087Z,14.33
2022-07-28T22:57:31.709Z,15.33
2022-07-28T23:00:36.773Z,14.00
2022-07-28T23:03:47.605Z,13.33
2022-07-28T23:06:58.819Z,14.67
2022-07-28T23:10:12.436Z,17.67
2022-07-28T23:13:20.041Z,16.33
2022-07-28T23:16:34.986Z,19.00
2022-07-28T23:19:40.473Z,14.33
2022-07-28T23:22:45.058Z,15.33
2022-07-28T23:25:52.530Z,16.00
2022-07-28T23:29:01.052Z,17.00
2022-07-28T23:32:05.489Z,13.33
2022-07-28T23:35:11.512Z,14.00
2022-07-28T23:38:21.095Z,16.67
2022-07-28T23:41:31.507Z,13.67
2022-07-28T23:44:38.156Z,18.67
2022-07-28T23:47:45.350Z,16.00
2022-07-28T23:50:49.527Z,15.33
2022-07-28T23:53:56.447Z,15.67
2022-07-28T23:57:08.341Z,16.33
